sensor_id;sensor_type;location;lat;lon;timestamp;P1;durP1;ratioP1;P2;durP2;ratioP2
57281;SDS011;43129;52.628;10.098;2023-05-02T00:01:22;9.30;;;3.90;;
57281;SDS011;43129;52.628;10.098;2023-05-02T00:03:47;7.43;;;3.75;;
57281;SDS011;43129;52.628;10.098;2023-05-02T00:06:15;6.10;;;3.40;;
57281;SDS011;43129;52.628;10.098;2023-05-02T00:08:43;6.70;;;4.07;;
57281;SDS011;43129;52.628;10.098;2023-05-02T00:11:09;11.20;;;6.05;;
57281;SDS011;43129;52.628;10.098;2023-05-02T00:13:35;19.40;;;10.10;;
57281;SDS011;43129;52.628;10.098;2023-05-02T00:16:00;9.02;;;3.85;;
57281;SDS011;43129;52.628;10.098;2023-05-02T00:18:31;5.82;;;3.60;;
57281;SDS011;43129;52.628;10.098;2023-05-02T00:20:56;6.28;;;3.22;;
57281;SDS011;43129;52.628;10.098;2023-05-02T00:23:22;5.53;;;3.47;;
57281;SDS011;43129;52.628;10.098;2023-05-02T00:25:48;7.05;;;3.47;;
57281;SDS011;43129;52.628;10.098;2023-05-02T00:28:16;4.22;;;3.20;;
57281;SDS011;43129;52.628;10.098;2023-05-02T00:30:47;7.93;;;3.78;;
57281;SDS011;43129;52.628;10.098;2023-05-02T00:33:14;7.65;;;3.90;;
57281;SDS011;43129;52.628;10.098;2023-05-02T00:35:40;6.43;;;3.65;;
57281;SDS011;43129;52.628;10.098;2023-05-02T00:38:10;6.25;;;3.78;;
57281;SDS011;43129;52.628;10.098;2023-05-02T00:40:46;9.15;;;3.20;;
57281;SDS011;43129;52.628;10.098;2023-05-02T00:43:17;4.68;;;3.50;;
57281;SDS011;43129;52.628;10.098;2023-05-02T00:45:46;5.97;;;3.95;;
57281;SDS011;43129;52.628;10.098;2023-05-02T00:48:14;7.40;;;3.75;;
57281;SDS011;43129;52.628;10.098;2023-05-02T00:50:44;9.88;;;4.20;;
57281;SDS011;43129;52.628;10.098;2023-05-02T00:53:10;10.90;;;4.43;;
57281;SDS011;43129;52.628;10.098;2023-05-02T00:55:36;9.65;;;3.58;;
57281;SDS011;43129;52.628;10.098;2023-05-02T00:58:04;9.27;;;3.67;;
57281;SDS011;43129;52.628;10.098;2023-05-02T01:00:35;9.00;;;3.90;;
57281;SDS011;43129;52.628;10.098;2023-05-02T01:03:19;5.63;;;3.88;;
57281;SDS011;43129;52.628;10.098;2023-05-02T01:08:47;5.80;;;3.58;;
57281;SDS011;43129;52.628;10.098;2023-05-02T01:11:29;6.35;;;3.80;;
57281;SDS011;43129;52.628;10.098;2023-05-02T01:14:27;5.90;;;3.72;;
57281;SDS011;43129;52.628;10.098;2023-05-02T01:17:10;9.02;;;4.10;;
57281;SDS011;43129;52.628;10.098;2023-05-02T01:19:42;6.93;;;3.90;;
57281;SDS011;43129;52.628;10.098;2023-05-02T01:22:15;7.05;;;3.97;;
57281;SDS011;43129;52.628;10.098;2023-05-02T01:24:47;9.95;;;3.60;;
57281;SDS011;43129;52.628;10.098;2023-05-02T01:30:12;7.07;;;4.22;;
57281;SDS011;43129;52.628;10.098;2023-05-02T01:32:45;5.72;;;4.05;;
57281;SDS011;43129;52.628;10.098;2023-05-02T01:35:15;8.77;;;4.25;;
57281;SDS011;43129;52.628;10.098;2023-05-02T01:37:44;7.65;;;4.20;;
57281;SDS011;43129;52.628;10.098;2023-05-02T01:40:11;7.35;;;4.07;;
57281;SDS011;43129;52.628;10.098;2023-05-02T01:42:43;8.30;;;4.10;;
57281;SDS011;43129;52.628;10.098;2023-05-02T01:45:12;7.45;;;3.70;;
57281;SDS011;43129;52.628;10.098;2023-05-02T01:47:39;7.20;;;4.05;;
57281;SDS011;43129;52.628;10.098;2023-05-02T01:50:07;8.30;;;4.10;;
57281;SDS011;43129;52.628;10.098;2023-05-02T01:52:37;9.13;;;3.80;;
57281;SDS011;43129;52.628;10.098;2023-05-02T01:55:08;6.32;;;4.35;;
57281;SDS011;43129;52.628;10.098;2023-05-02T01:57:41;6.07;;;4.10;;
57281;SDS011;43129;52.628;10.098;2023-05-02T02:00:09;11.55;;;4.22;;
57281;SDS011;43129;52.628;10.098;2023-05-02T02:02:36;6.45;;;4.15;;
57281;SDS011;43129;52.628;10.098;2023-05-02T02:05:08;7.88;;;4.15;;
57281;SDS011;43129;52.628;10.098;2023-05-02T02:07:36;5.47;;;3.97;;
57281;SDS011;43129;52.628;10.098;2023-05-02T02:10:03;7.15;;;4.32;;
57281;SDS011;43129;52.628;10.098;2023-05-02T02:12:34;4.93;;;4.13;;
57281;SDS011;43129;52.628;10.098;2023-05-02T02:15:19;7.72;;;4.68;;
57281;SDS011;43129;52.628;10.098;2023-05-02T02:17:56;10.32;;;5.15;;
57281;SDS011;43129;52.628;10.098;2023-05-02T02:20:30;7.93;;;5.28;;
57281;SDS011;43129;52.628;10.098;2023-05-02T02:23:07;11.32;;;5.63;;
57281;SDS011;43129;52.628;10.098;2023-05-02T02:25:37;11.95;;;6.43;;
57281;SDS011;43129;52.628;10.098;2023-05-02T02:28:03;11.23;;;5.63;;
57281;SDS011;43129;52.628;10.098;2023-05-02T02:30:33;11.55;;;7.00;;
57281;SDS011;43129;52.628;10.098;2023-05-02T02:32:59;11.88;;;6.90;;
57281;SDS011;43129;52.628;10.098;2023-05-02T02:35:27;12.90;;;6.70;;
57281;SDS011;43129;52.628;10.098;2023-05-02T02:38:03;10.98;;;6.82;;
57281;SDS011;43129;52.628;10.098;2023-05-02T02:40:44;11.90;;;7.03;;
57281;SDS011;43129;52.628;10.098;2023-05-02T02:43:23;12.75;;;7.57;;
57281;SDS011;43129;52.628;10.098;2023-05-02T02:54:46;15.27;;;8.25;;
57281;SDS011;43129;52.628;10.098;2023-05-02T02:59:39;15.23;;;8.88;;
57281;SDS011;43129;52.628;10.098;2023-05-02T03:02:12;15.38;;;9.23;;
57281;SDS011;43129;52.628;10.098;2023-05-02T03:04:41;16.38;;;9.77;;
57281;SDS011;43129;52.628;10.098;2023-05-02T03:07:09;16.77;;;10.30;;
57281;SDS011;43129;52.628;10.098;2023-05-02T03:12:11;18.92;;;11.40;;
57281;SDS011;43129;52.628;10.098;2023-05-02T03:14:39;18.67;;;11.13;;
57281;SDS011;43129;52.628;10.098;2023-05-02T03:17:05;18.77;;;12.00;;
57281;SDS011;43129;52.628;10.098;2023-05-02T03:19:32;16.83;;;10.48;;
57281;SDS011;43129;52.628;10.098;2023-05-02T03:22:08;18.27;;;12.05;;
57281;SDS011;43129;52.628;10.098;2023-05-02T03:24:34;21.85;;;13.25;;
57281;SDS011;43129;52.628;10.098;2023-05-02T03:27:00;24.35;;;14.70;;
57281;SDS011;43129;52.628;10.098;2023-05-02T03:29:25;23.63;;;13.80;;
57281;SDS011;43129;52.628;10.098;2023-05-02T03:31:59;18.88;;;12.88;;
57281;SDS011;43129;52.628;10.098;2023-05-02T03:34:29;21.23;;;13.18;;
57281;SDS011;43129;52.628;10.098;2023-05-02T03:36:55;22.75;;;13.93;;
57281;SDS011;43129;52.628;10.098;2023-05-02T03:39:23;21.60;;;13.50;;
57281;SDS011;43129;52.628;10.098;2023-05-02T03:41:52;23.88;;;14.05;;
57281;SDS011;43129;52.628;10.098;2023-05-02T03:44:17;22.27;;;13.25;;
57281;SDS011;43129;52.628;10.098;2023-05-02T03:46:46;20.65;;;12.35;;
57281;SDS011;43129;52.628;10.098;2023-05-02T03:49:12;22.77;;;14.63;;
57281;SDS011;43129;52.628;10.098;2023-05-02T03:51:38;20.88;;;13.25;;
57281;SDS011;43129;52.628;10.098;2023-05-02T03:54:04;25.63;;;14.65;;
57281;SDS011;43129;52.628;10.098;2023-05-02T03:56:32;22.95;;;14.77;;
57281;SDS011;43129;52.628;10.098;2023-05-02T03:59:00;24.05;;;14.88;;
57281;SDS011;43129;52.628;10.098;2023-05-02T04:01:26;26.15;;;15.32;;
57281;SDS011;43129;52.628;10.098;2023-05-02T04:03:54;22.63;;;15.27;;
57281;SDS011;43129;52.628;10.098;2023-05-02T04:06:20;28.08;;;15.80;;
57281;SDS011;43129;52.628;10.098;2023-05-02T04:08:48;24.98;;;15.75;;
57281;SDS011;43129;52.628;10.098;2023-05-02T04:11:14;30.83;;;17.70;;
57281;SDS011;43129;52.628;10.098;2023-05-02T04:13:39;30.20;;;17.70;;
57281;SDS011;43129;52.628;10.098;2023-05-02T04:16:07;28.80;;;18.17;;
57281;SDS011;43129;52.628;10.098;2023-05-02T04:18:33;30.42;;;18.83;;
57281;SDS011;43129;52.628;10.098;2023-05-02T04:21:01;34.53;;;19.83;;
57281;SDS011;43129;52.628;10.098;2023-05-02T04:23:27;33.63;;;19.50;;
57281;SDS011;43129;52.628;10.098;2023-05-02T04:25:53;31.88;;;19.90;;
57281;SDS011;43129;52.628;10.098;2023-05-02T04:28:20;35.70;;;19.08;;
57281;SDS011;43129;52.628;10.098;2023-05-02T04:30:47;38.55;;;21.48;;
57281;SDS011;43129;52.628;10.098;2023-05-02T04:33:16;33.45;;;20.63;;
57281;SDS011;43129;52.628;10.098;2023-05-02T04:35:44;48.25;;;29.65;;
57281;SDS011;43129;52.628;10.098;2023-05-02T04:38:12;43.67;;;23.83;;
57281;SDS011;43129;52.628;10.098;2023-05-02T04:40:41;41.17;;;24.40;;
57281;SDS011;43129;52.628;10.098;2023-05-02T04:43:09;38.63;;;20.45;;
57281;SDS011;43129;52.628;10.098;2023-05-02T04:45:37;43.20;;;21.40;;
57281;SDS011;43129;52.628;10.098;2023-05-02T04:48:05;41.60;;;22.60;;
57281;SDS011;43129;52.628;10.098;2023-05-02T04:50:31;40.08;;;22.27;;
57281;SDS011;43129;52.628;10.098;2023-05-02T04:52:56;36.28;;;21.42;;
57281;SDS011;43129;52.628;10.098;2023-05-02T04:55:23;37.17;;;20.52;;
57281;SDS011;43129;52.628;10.098;2023-05-02T04:57:51;38.33;;;20.10;;
57281;SDS011;43129;52.628;10.098;2023-05-02T05:00:17;29.52;;;16.63;;
57281;SDS011;43129;52.628;10.098;2023-05-02T05:02:45;20.23;;;11.23;;
57281;SDS011;43129;52.628;10.098;2023-05-02T05:05:13;12.60;;;7.95;;
57281;SDS011;43129;52.628;10.098;2023-05-02T05:07:41;10.10;;;6.55;;
57281;SDS011;43129;52.628;10.098;2023-05-02T05:10:07;9.40;;;5.78;;
57281;SDS011;43129;52.628;10.098;2023-05-02T05:12:35;7.88;;;4.22;;
57281;SDS011;43129;52.628;10.098;2023-05-02T05:15:01;4.68;;;2.63;;
57281;SDS011;43129;52.628;10.098;2023-05-02T05:17:26;5.05;;;2.83;;
57281;SDS011;43129;52.628;10.098;2023-05-02T05:19:54;7.00;;;2.90;;
57281;SDS011;43129;52.628;10.098;2023-05-02T05:22:22;7.18;;;4.03;;
57281;SDS011;43129;52.628;10.098;2023-05-02T05:24:53;4.13;;;2.50;;
57281;SDS011;43129;52.628;10.098;2023-05-02T05:27:21;6.10;;;3.30;;
57281;SDS011;43129;52.628;10.098;2023-05-02T05:29:47;7.30;;;4.47;;
57281;SDS011;43129;52.628;10.098;2023-05-02T05:32:15;12.98;;;5.38;;
57281;SDS011;43129;52.628;10.098;2023-05-02T05:34:40;6.53;;;2.90;;
57281;SDS011;43129;52.628;10.098;2023-05-02T05:37:09;12.57;;;4.88;;
57281;SDS011;43129;52.628;10.098;2023-05-02T05:39:36;3.17;;;2.00;;
57281;SDS011;43129;52.628;10.098;2023-05-02T05:42:02;3.67;;;1.92;;
57281;SDS011;43129;52.628;10.098;2023-05-02T05:44:30;7.13;;;2.35;;
57281;SDS011;43129;52.628;10.098;2023-05-02T05:46:56;12.38;;;5.10;;
57281;SDS011;43129;52.628;10.098;2023-05-02T05:49:24;6.05;;;2.92;;
57281;SDS011;43129;52.628;10.098;2023-05-02T05:51:50;4.72;;;2.20;;
57281;SDS011;43129;52.628;10.098;2023-05-02T05:54:18;8.93;;;2.67;;
57281;SDS011;43129;52.628;10.098;2023-05-02T05:56:44;9.55;;;2.80;;
57281;SDS011;43129;52.628;10.098;2023-05-02T05:59:10;10.98;;;4.65;;
57281;SDS011;43129;52.628;10.098;2023-05-02T06:01:38;7.78;;;3.13;;
57281;SDS011;43129;52.628;10.098;2023-05-02T06:04:04;16.38;;;4.28;;
57281;SDS011;43129;52.628;10.098;2023-05-02T06:06:31;14.82;;;4.57;;
57281;SDS011;43129;52.628;10.098;2023-05-02T06:09:00;19.98;;;4.95;;
57281;SDS011;43129;52.628;10.098;2023-05-02T06:11:26;19.00;;;4.30;;
57281;SDS011;43129;52.628;10.098;2023-05-02T06:13:52;19.40;;;4.32;;
57281;SDS011;43129;52.628;10.098;2023-05-02T06:16:18;22.35;;;5.93;;
57281;SDS011;43129;52.628;10.098;2023-05-02T06:18:44;16.77;;;4.60;;
57281;SDS011;43129;52.628;10.098;2023-05-02T06:21:15;18.85;;;4.22;;
57281;SDS011;43129;52.628;10.098;2023-05-02T06:23:41;18.35;;;4.32;;
57281;SDS011;43129;52.628;10.098;2023-05-02T06:26:09;14.45;;;4.05;;
57281;SDS011;43129;52.628;10.098;2023-05-02T06:28:34;18.83;;;4.57;;
57281;SDS011;43129;52.628;10.098;2023-05-02T06:31:01;23.77;;;5.03;;
57281;SDS011;43129;52.628;10.098;2023-05-02T06:33:28;17.33;;;4.40;;
57281;SDS011;43129;52.628;10.098;2023-05-02T06:35:54;15.23;;;4.88;;
57281;SDS011;43129;52.628;10.098;2023-05-02T06:38:26;16.58;;;4.15;;
57281;SDS011;43129;52.628;10.098;2023-05-02T06:40:52;14.60;;;4.15;;
57281;SDS011;43129;52.628;10.098;2023-05-02T06:43:17;17.30;;;4.10;;
57281;SDS011;43129;52.628;10.098;2023-05-02T06:45:43;20.13;;;4.32;;
57281;SDS011;43129;52.628;10.098;2023-05-02T06:48:11;16.20;;;4.93;;
57281;SDS011;43129;52.628;10.098;2023-05-02T06:50:37;20.85;;;4.85;;
57281;SDS011;43129;52.628;10.098;2023-05-02T06:53:05;16.77;;;4.53;;
57281;SDS011;43129;52.628;10.098;2023-05-02T06:55:31;16.17;;;3.85;;
57281;SDS011;43129;52.628;10.098;2023-05-02T06:57:56;18.30;;;4.28;;
57281;SDS011;43129;52.628;10.098;2023-05-02T07:00:25;20.48;;;4.20;;
57281;SDS011;43129;52.628;10.098;2023-05-02T07:02:51;18.20;;;3.92;;
57281;SDS011;43129;52.628;10.098;2023-05-02T07:05:21;21.58;;;4.20;;
57281;SDS011;43129;52.628;10.098;2023-05-02T07:07:47;17.52;;;4.18;;
57281;SDS011;43129;52.628;10.098;2023-05-02T07:10:13;14.43;;;3.83;;
57281;SDS011;43129;52.628;10.098;2023-05-02T07:12:39;17.00;;;4.00;;
57281;SDS011;43129;52.628;10.098;2023-05-02T07:15:05;15.38;;;4.03;;
57281;SDS011;43129;52.628;10.098;2023-05-02T07:17:31;20.88;;;3.88;;
57281;SDS011;43129;52.628;10.098;2023-05-02T07:19:59;16.38;;;4.50;;
57281;SDS011;43129;52.628;10.098;2023-05-02T07:22:24;18.40;;;5.20;;
57281;SDS011;43129;52.628;10.098;2023-05-02T07:24:56;13.98;;;3.53;;
57281;SDS011;43129;52.628;10.098;2023-05-02T07:27:28;18.15;;;5.18;;
57281;SDS011;43129;52.628;10.098;2023-05-02T07:29:54;18.55;;;5.05;;
57281;SDS011;43129;52.628;10.098;2023-05-02T07:32:22;15.68;;;4.60;;
57281;SDS011;43129;52.628;10.098;2023-05-02T07:34:50;15.43;;;3.53;;
57281;SDS011;43129;52.628;10.098;2023-05-02T07:37:22;13.10;;;3.42;;
57281;SDS011;43129;52.628;10.098;2023-05-02T07:39:48;17.77;;;3.95;;
57281;SDS011;43129;52.628;10.098;2023-05-02T07:42:13;18.35;;;4.60;;
57281;SDS011;43129;52.628;10.098;2023-05-02T07:44:39;19.50;;;3.75;;
57281;SDS011;43129;52.628;10.098;2023-05-02T07:47:17;15.15;;;3.40;;
57281;SDS011;43129;52.628;10.098;2023-05-02T07:49:49;11.93;;;3.47;;
57281;SDS011;43129;52.628;10.098;2023-05-02T07:52:15;7.78;;;3.03;;
57281;SDS011;43129;52.628;10.098;2023-05-02T07:54:41;13.23;;;3.20;;
57281;SDS011;43129;52.628;10.098;2023-05-02T07:57:07;11.18;;;2.65;;
57281;SDS011;43129;52.628;10.098;2023-05-02T07:59:33;9.05;;;2.67;;
57281;SDS011;43129;52.628;10.098;2023-05-02T08:02:10;9.25;;;2.47;;
57281;SDS011;43129;52.628;10.098;2023-05-02T08:04:47;5.72;;;1.90;;
57281;SDS011;43129;52.628;10.098;2023-05-02T08:07:13;6.93;;;2.00;;
57281;SDS011;43129;52.628;10.098;2023-05-02T08:09:43;10.40;;;3.60;;
57281;SDS011;43129;52.628;10.098;2023-05-02T08:12:09;7.05;;;2.08;;
57281;SDS011;43129;52.628;10.098;2023-05-02T08:14:37;9.75;;;4.30;;
57281;SDS011;43129;52.628;10.098;2023-05-02T08:17:02;5.95;;;2.63;;
57281;SDS011;43129;52.628;10.098;2023-05-02T08:19:30;7.60;;;2.25;;
57281;SDS011;43129;52.628;10.098;2023-05-02T08:21:56;9.38;;;2.33;;
57281;SDS011;43129;52.628;10.098;2023-05-02T08:24:24;9.23;;;2.70;;
57281;SDS011;43129;52.628;10.098;2023-05-02T08:26:49;13.30;;;2.72;;
57281;SDS011;43129;52.628;10.098;2023-05-02T08:29:20;10.15;;;2.17;;
57281;SDS011;43129;52.628;10.098;2023-05-02T08:31:47;6.38;;;2.28;;
57281;SDS011;43129;52.628;10.098;2023-05-02T08:34:15;6.55;;;2.42;;
57281;SDS011;43129;52.628;10.098;2023-05-02T08:36:41;8.73;;;3.85;;
57281;SDS011;43129;52.628;10.098;2023-05-02T08:39:06;6.10;;;2.30;;
57281;SDS011;43129;52.628;10.098;2023-05-02T08:41:33;7.90;;;3.33;;
57281;SDS011;43129;52.628;10.098;2023-05-02T08:44:01;14.00;;;5.40;;
57281;SDS011;43129;52.628;10.098;2023-05-02T08:46:29;12.85;;;3.20;;
57281;SDS011;43129;52.628;10.098;2023-05-02T08:48:59;8.20;;;2.50;;
57281;SDS011;43129;52.628;10.098;2023-05-02T08:51:26;6.70;;;2.53;;
57281;SDS011;43129;52.628;10.098;2023-05-02T08:53:53;10.23;;;3.58;;
57281;SDS011;43129;52.628;10.098;2023-05-02T08:56:22;6.70;;;2.10;;
57281;SDS011;43129;52.628;10.098;2023-05-02T08:58:50;5.80;;;2.22;;
57281;SDS011;43129;52.628;10.098;2023-05-02T09:01:22;5.72;;;2.00;;
57281;SDS011;43129;52.628;10.098;2023-05-02T09:03:52;7.75;;;2.60;;
57281;SDS011;43129;52.628;10.098;2023-05-02T09:08:51;6.07;;;2.10;;
57281;SDS011;43129;52.628;10.098;2023-05-02T09:11:17;8.85;;;2.88;;
57281;SDS011;43129;52.628;10.098;2023-05-02T09:16:13;6.80;;;2.33;;
57281;SDS011;43129;52.628;10.098;2023-05-02T09:18:44;9.73;;;2.90;;
57281;SDS011;43129;52.628;10.098;2023-05-02T09:26:20;10.90;;;2.70;;
57281;SDS011;43129;52.628;10.098;2023-05-02T09:28:46;7.82;;;2.20;;
57281;SDS011;43129;52.628;10.098;2023-05-02T09:31:14;8.55;;;2.40;;
57281;SDS011;43129;52.628;10.098;2023-05-02T09:33:42;7.15;;;3.63;;
57281;SDS011;43129;52.628;10.098;2023-05-02T09:36:11;6.40;;;2.55;;
57281;SDS011;43129;52.628;10.098;2023-05-02T09:38:39;8.70;;;3.22;;
57281;SDS011;43129;52.628;10.098;2023-05-02T09:41:05;9.23;;;3.03;;
57281;SDS011;43129;52.628;10.098;2023-05-02T09:43:33;7.15;;;2.35;;
57281;SDS011;43129;52.628;10.098;2023-05-02T09:46:08;9.20;;;2.53;;
57281;SDS011;43129;52.628;10.098;2023-05-02T09:48:51;5.97;;;2.60;;
57281;SDS011;43129;52.628;10.098;2023-05-02T09:51:23;14.00;;;3.38;;
57281;SDS011;43129;52.628;10.098;2023-05-02T09:53:51;10.95;;;3.33;;
57281;SDS011;43129;52.628;10.098;2023-05-02T09:56:20;8.20;;;2.58;;
57281;SDS011;43129;52.628;10.098;2023-05-02T09:58:49;10.98;;;3.30;;
57281;SDS011;43129;52.628;10.098;2023-05-02T10:01:15;9.70;;;2.60;;
57281;SDS011;43129;52.628;10.098;2023-05-02T10:03:42;18.10;;;3.85;;
57281;SDS011;43129;52.628;10.098;2023-05-02T10:06:11;7.93;;;2.63;;
57281;SDS011;43129;52.628;10.098;2023-05-02T10:08:38;18.23;;;4.95;;
57281;SDS011;43129;52.628;10.098;2023-05-02T10:11:06;9.38;;;3.22;;
57281;SDS011;43129;52.628;10.098;2023-05-02T10:13:35;11.52;;;2.75;;
57281;SDS011;43129;52.628;10.098;2023-05-02T10:16:04;10.00;;;3.30;;
57281;SDS011;43129;52.628;10.098;2023-05-02T10:18:44;8.15;;;2.97;;
57281;SDS011;43129;52.628;10.098;2023-05-02T10:21:25;10.52;;;3.95;;
57281;SDS011;43129;52.628;10.098;2023-05-02T10:23:54;8.75;;;2.90;;
57281;SDS011;43129;52.628;10.098;2023-05-02T10:26:21;7.18;;;2.88;;
57281;SDS011;43129;52.628;10.098;2023-05-02T10:28:49;8.85;;;2.78;;
57281;SDS011;43129;52.628;10.098;2023-05-02T10:31:16;11.80;;;2.97;;
57281;SDS011;43129;52.628;10.098;2023-05-02T10:33:42;10.30;;;2.65;;
57281;SDS011;43129;52.628;10.098;2023-05-02T10:36:13;8.25;;;2.60;;
57281;SDS011;43129;52.628;10.098;2023-05-02T10:38:41;13.02;;;3.28;;
57281;SDS011;43129;52.628;10.098;2023-05-02T10:41:15;9.88;;;2.58;;
57281;SDS011;43129;52.628;10.098;2023-05-02T10:43:44;11.18;;;2.88;;
57281;SDS011;43129;52.628;10.098;2023-05-02T10:49:00;11.25;;;2.85;;
57281;SDS011;43129;52.628;10.098;2023-05-02T10:51:33;9.32;;;3.08;;
57281;SDS011;43129;52.628;10.098;2023-05-02T11:02:53;8.80;;;2.38;;
57281;SDS011;43129;52.628;10.098;2023-05-02T11:04:58;9.82;;;2.88;;
57281;SDS011;43129;52.628;10.098;2023-05-02T11:07:34;10.27;;;2.58;;
57281;SDS011;43129;52.628;10.098;2023-05-02T11:15:58;10.48;;;2.97;;
57281;SDS011;43129;52.628;10.098;2023-05-02T11:20:39;10.02;;;3.00;;
57281;SDS011;43129;52.628;10.098;2023-05-02T11:25:40;5.30;;;2.42;;
57281;SDS011;43129;52.628;10.098;2023-05-02T11:31:04;12.88;;;2.80;;
57281;SDS011;43129;52.628;10.098;2023-05-02T11:33:31;11.13;;;3.33;;
57281;SDS011;43129;52.628;10.098;2023-05-02T11:36:00;9.30;;;3.10;;
57281;SDS011;43129;52.628;10.098;2023-05-02T11:38:36;8.70;;;2.90;;
57281;SDS011;43129;52.628;10.098;2023-05-02T11:41:04;10.07;;;2.80;;
57281;SDS011;43129;52.628;10.098;2023-05-02T11:43:32;9.43;;;3.00;;
57281;SDS011;43129;52.628;10.098;2023-05-02T11:45:59;9.35;;;3.13;;
57281;SDS011;43129;52.628;10.098;2023-05-02T11:48:25;8.55;;;3.15;;
57281;SDS011;43129;52.628;10.098;2023-05-02T11:50:56;10.57;;;3.17;;
57281;SDS011;43129;52.628;10.098;2023-05-02T11:53:31;7.75;;;2.38;;
57281;SDS011;43129;52.628;10.098;2023-05-02T11:55:59;5.03;;;2.58;;
57281;SDS011;43129;52.628;10.098;2023-05-02T11:58:28;7.57;;;2.47;;
57281;SDS011;43129;52.628;10.098;2023-05-02T12:00:56;6.72;;;2.53;;
57281;SDS011;43129;52.628;10.098;2023-05-02T12:03:27;4.70;;;2.25;;
57281;SDS011;43129;52.628;10.098;2023-05-02T12:05:55;4.90;;;2.58;;
57281;SDS011;43129;52.628;10.098;2023-05-02T12:08:47;11.23;;;2.63;;
57281;SDS011;43129;52.628;10.098;2023-05-02T12:11:19;5.82;;;2.40;;
57281;SDS011;43129;52.628;10.098;2023-05-02T12:13:47;5.90;;;2.53;;
57281;SDS011;43129;52.628;10.098;2023-05-02T12:16:14;6.82;;;3.00;;
57281;SDS011;43129;52.628;10.098;2023-05-02T12:18:40;7.35;;;2.83;;
57281;SDS011;43129;52.628;10.098;2023-05-02T12:21:07;8.77;;;2.33;;
57281;SDS011;43129;52.628;10.098;2023-05-02T12:23:33;4.65;;;2.17;;
57281;SDS011;43129;52.628;10.098;2023-05-02T12:26:09;8.52;;;2.30;;
57281;SDS011;43129;52.628;10.098;2023-05-02T12:28:49;9.45;;;2.78;;
57281;SDS011;43129;52.628;10.098;2023-05-02T12:31:16;8.07;;;2.33;;
57281;SDS011;43129;52.628;10.098;2023-05-02T12:33:45;5.50;;;2.40;;
57281;SDS011;43129;52.628;10.098;2023-05-02T12:38:46;5.70;;;2.78;;
57281;SDS011;43129;52.628;10.098;2023-05-02T12:41:14;5.68;;;2.58;;
57281;SDS011;43129;52.628;10.098;2023-05-02T12:43:46;5.35;;;2.13;;
57281;SDS011;43129;52.628;10.098;2023-05-02T12:46:13;4.45;;;2.17;;
57281;SDS011;43129;52.628;10.098;2023-05-02T12:48:39;6.53;;;2.33;;
57281;SDS011;43129;52.628;10.098;2023-05-02T12:51:04;4.40;;;2.38;;
57281;SDS011;43129;52.628;10.098;2023-05-02T12:53:40;4.82;;;2.13;;
57281;SDS011;43129;52.628;10.098;2023-05-02T12:56:11;4.00;;;1.95;;
57281;SDS011;43129;52.628;10.098;2023-05-02T13:01:07;4.93;;;2.20;;
57281;SDS011;43129;52.628;10.098;2023-05-02T13:03:33;4.93;;;1.95;;
57281;SDS011;43129;52.628;10.098;2023-05-02T13:06:01;6.93;;;2.13;;
57281;SDS011;43129;52.628;10.098;2023-05-02T13:08:27;4.57;;;2.08;;
57281;SDS011;43129;52.628;10.098;2023-05-02T13:10:53;5.38;;;2.00;;
57281;SDS011;43129;52.628;10.098;2023-05-02T13:13:23;3.75;;;2.00;;
57281;SDS011;43129;52.628;10.098;2023-05-02T13:15:49;4.85;;;2.03;;
57281;SDS011;43129;52.628;10.098;2023-05-02T13:18:14;6.72;;;2.00;;
57281;SDS011;43129;52.628;10.098;2023-05-02T13:20:40;4.60;;;2.20;;
57281;SDS011;43129;52.628;10.098;2023-05-02T13:23:06;5.80;;;2.10;;
57281;SDS011;43129;52.628;10.098;2023-05-02T13:25:34;3.42;;;2.30;;
57281;SDS011;43129;52.628;10.098;2023-05-02T13:27:59;7.93;;;3.95;;
57281;SDS011;43129;52.628;10.098;2023-05-02T13:30:30;6.18;;;2.42;;
57281;SDS011;43129;52.628;10.098;2023-05-02T13:33:00;4.70;;;2.05;;
57281;SDS011;43129;52.628;10.098;2023-05-02T13:35:29;3.83;;;2.08;;
57281;SDS011;43129;52.628;10.098;2023-05-02T13:37:54;3.97;;;2.08;;
57281;SDS011;43129;52.628;10.098;2023-05-02T13:40:20;4.40;;;2.55;;
57281;SDS011;43129;52.628;10.098;2023-05-02T13:42:45;7.18;;;2.50;;
57281;SDS011;43129;52.628;10.098;2023-05-02T13:45:11;3.10;;;1.70;;
57281;SDS011;43129;52.628;10.098;2023-05-02T13:47:43;5.22;;;1.90;;
57281;SDS011;43129;52.628;10.098;2023-05-02T13:50:11;4.50;;;1.90;;
57281;SDS011;43129;52.628;10.098;2023-05-02T13:52:42;2.95;;;1.83;;
57281;SDS011;43129;52.628;10.098;2023-05-02T13:55:08;5.45;;;2.20;;
57281;SDS011;43129;52.628;10.098;2023-05-02T13:57:33;3.85;;;1.90;;
57281;SDS011;43129;52.628;10.098;2023-05-02T14:00:01;5.03;;;2.30;;
57281;SDS011;43129;52.628;10.098;2023-05-02T14:02:28;2.83;;;1.80;;
57281;SDS011;43129;52.628;10.098;2023-05-02T14:04:53;10.93;;;5.70;;
57281;SDS011;43129;52.628;10.098;2023-05-02T14:07:19;5.97;;;1.92;;
57281;SDS011;43129;52.628;10.098;2023-05-02T14:09:45;3.90;;;1.92;;
57281;SDS011;43129;52.628;10.098;2023-05-02T14:12:10;2.33;;;1.60;;
57281;SDS011;43129;52.628;10.098;2023-05-02T14:14:36;4.13;;;1.95;;
57281;SDS011;43129;52.628;10.098;2023-05-02T14:17:02;6.57;;;2.10;;
57281;SDS011;43129;52.628;10.098;2023-05-02T14:19:29;41.63;;;27.05;;
57281;SDS011;43129;52.628;10.098;2023-05-02T14:21:54;51.25;;;28.40;;
57281;SDS011;43129;52.628;10.098;2023-05-02T14:24:22;15.63;;;8.27;;
57281;SDS011;43129;52.628;10.098;2023-05-02T14:26:53;7.30;;;2.00;;
57281;SDS011;43129;52.628;10.098;2023-05-02T14:29:21;6.60;;;2.22;;
57281;SDS011;43129;52.628;10.098;2023-05-02T14:31:47;2.40;;;1.85;;
57281;SDS011;43129;52.628;10.098;2023-05-02T14:34:15;3.80;;;2.03;;
57281;SDS011;43129;52.628;10.098;2023-05-02T14:36:40;3.78;;;1.92;;
57281;SDS011;43129;52.628;10.098;2023-05-02T14:39:06;4.30;;;1.52;;
57281;SDS011;43129;52.628;10.098;2023-05-02T14:41:34;1.98;;;1.25;;
57281;SDS011;43129;52.628;10.098;2023-05-02T14:44:00;6.78;;;1.52;;
57281;SDS011;43129;52.628;10.098;2023-05-02T14:46:30;3.08;;;1.70;;
57281;SDS011;43129;52.628;10.098;2023-05-02T14:49:01;3.30;;;1.48;;
57281;SDS011;43129;52.628;10.098;2023-05-02T14:51:31;3.83;;;1.73;;
57281;SDS011;43129;52.628;10.098;2023-05-02T14:53:59;3.42;;;1.80;;
57281;SDS011;43129;52.628;10.098;2023-05-02T14:56:25;5.00;;;2.05;;
57281;SDS011;43129;52.628;10.098;2023-05-02T14:58:51;4.07;;;1.75;;
57281;SDS011;43129;52.628;10.098;2023-05-02T15:01:17;6.43;;;2.13;;
57281;SDS011;43129;52.628;10.098;2023-05-02T15:03:46;3.67;;;2.00;;
57281;SDS011;43129;52.628;10.098;2023-05-02T15:06:13;2.90;;;1.75;;
57281;SDS011;43129;52.628;10.098;2023-05-02T15:08:42;5.53;;;2.13;;
57281;SDS011;43129;52.628;10.098;2023-05-02T15:11:11;2.30;;;1.48;;
57281;SDS011;43129;52.628;10.098;2023-05-02T15:13:40;3.80;;;2.00;;
57281;SDS011;43129;52.628;10.098;2023-05-02T15:16:08;3.13;;;1.63;;
57281;SDS011;43129;52.628;10.098;2023-05-02T15:18:36;4.78;;;1.42;;
57281;SDS011;43129;52.628;10.098;2023-05-02T15:21:04;3.67;;;1.40;;
57281;SDS011;43129;52.628;10.098;2023-05-02T15:23:32;4.72;;;1.70;;
57281;SDS011;43129;52.628;10.098;2023-05-02T15:25:57;6.60;;;1.45;;
57281;SDS011;43129;52.628;10.098;2023-05-02T15:28:25;4.80;;;1.60;;
57281;SDS011;43129;52.628;10.098;2023-05-02T15:30:51;3.53;;;1.42;;
57281;SDS011;43129;52.628;10.098;2023-05-02T15:33:19;4.50;;;2.35;;
57281;SDS011;43129;52.628;10.098;2023-05-02T15:35:51;5.55;;;2.20;;